sensor_id;sensor_type;location;lat;lon;timestamp;temperature;humidity
52531;DHT22;38441;52.894;6.040;2023-08-08T00:00:38;12.40;99.90
52531;DHT22;38441;52.894;6.040;2023-08-08T00:03:04;15.40;99.90
52531;DHT22;38441;52.894;6.040;2023-08-08T00:05:29;14.30;99.90
52531;DHT22;38441;52.894;6.040;2023-08-08T00:07:55;16.00;99.90
52531;DHT22;38441;52.894;6.040;2023-08-08T00:10:21;15.90;99.90
52531;DHT22;38441;52.894;6.040;2023-08-08T00:12:46;17.30;99.90
52531;DHT22;38441;52.894;6.040;2023-08-08T00:15:12;15.10;99.90
52531;DHT22;38441;52.894;6.040;2023-08-08T00:17:38;15.90;99.90
52531;DHT22;38441;52.894;6.040;2023-08-08T00:20:04;15.10;99.90
52531;DHT22;38441;52.894;6.040;2023-08-08T00:22:30;14.20;99.90
52531;DHT22;38441;52.894;6.040;2023-08-08T00:24:55;14.10;99.90
52531;DHT22;38441;52.894;6.040;2023-08-08T00:27:21;15.20;99.90
52531;DHT22;38441;52.894;6.040;2023-08-08T00:29:47;16.00;99.90
52531;DHT22;38441;52.894;6.040;2023-08-08T00:32:12;15.60;99.90
52531;DHT22;38441;52.894;6.040;2023-08-08T00:34:38;14.10;99.90
52531;DHT22;38441;52.894;6.040;2023-08-08T00:37:04;15.90;99.90
52531;DHT22;38441;52.894;6.040;2023-08-08T00:39:29;15.40;99.90
52531;DHT22;38441;52.894;6.040;2023-08-08T00:41:55;17.10;99.90
52531;DHT22;38441;52.894;6.040;2023-08-08T00:44:21;14.10;99.90
52531;DHT22;38441;52.894;6.040;2023-08-08T00:46:46;14.10;99.90
52531;DHT22;38441;52.894;6.040;2023-08-08T00:49:12;15.10;99.90
52531;DHT22;38441;52.894;6.040;2023-08-08T00:51:38;14.00;99.90
52531;DHT22;38441;52.894;6.040;2023-08-08T00:54:04;15.20;99.90
52531;DHT22;38441;52.894;6.040;2023-08-08T00:56:31;14.20;99.90
52531;DHT22;38441;52.894;6.040;2023-08-08T00:58:57;14.70;99.90
52531;DHT22;38441;52.894;6.040;2023-08-08T01:01:22;16.10;99.90
52531;DHT22;38441;52.894;6.040;2023-08-08T01:03:48;16.00;99.90
52531;DHT22;38441;52.894;6.040;2023-08-08T01:09:41;14.30;99.90
52531;DHT22;38441;52.894;6.040;2023-08-08T01:12:11;14.00;99.90
52531;DHT22;38441;52.894;6.040;2023-08-08T01:14:38;14.30;99.90
52531;DHT22;38441;52.894;6.040;2023-08-08T01:17:06;14.10;99.90
52531;DHT22;38441;52.894;6.040;2023-08-08T01:19:32;14.70;99.90
52531;DHT22;38441;52.894;6.040;2023-08-08T01:22:16;14.10;99.90
52531;DHT22;38441;52.894;6.040;2023-08-08T01:24:47;14.10;99.90
52531;DHT22;38441;52.894;6.040;2023-08-08T01:27:13;15.00;99.90
52531;DHT22;38441;52.894;6.040;2023-08-08T01:29:41;14.10;99.90
52531;DHT22;38441;52.894;6.040;2023-08-08T01:32:07;15.40;99.90
52531;DHT22;38441;52.894;6.040;2023-08-08T01:34:34;15.70;99.90
52531;DHT22;38441;52.894;6.040;2023-08-08T01:37:12;13.70;99.90
52531;DHT22;38441;52.894;6.040;2023-08-08T01:39:40;14.20;99.90
52531;DHT22;38441;52.894;6.040;2023-08-08T01:42:06;14.90;99.90
52531;DHT22;38441;52.894;6.040;2023-08-08T01:44:32;15.20;99.90
52531;DHT22;38441;52.894;6.040;2023-08-08T01:47:00;14.40;99.90
52531;DHT22;38441;52.894;6.040;2023-08-08T01:49:26;14.90;99.90
52531;DHT22;38441;52.894;6.040;2023-08-08T01:51:51;14.00;99.90
52531;DHT22;38441;52.894;6.040;2023-08-08T01:54:18;15.60;99.90
52531;DHT22;38441;52.894;6.040;2023-08-08T01:56:44;15.40;99.90
52531;DHT22;38441;52.894;6.040;2023-08-08T01:59:09;15.40;99.90
52531;DHT22;38441;52.894;6.040;2023-08-08T02:01:35;15.10;99.90
52531;DHT22;38441;52.894;6.040;2023-08-08T02:04:01;14.30;99.90
52531;DHT22;38441;52.894;6.040;2023-08-08T02:06:26;14.90;99.90
52531;DHT22;38441;52.894;6.040;2023-08-08T02:08:52;14.20;99.90
52531;DHT22;38441;52.894;6.040;2023-08-08T02:11:18;14.10;99.90
52531;DHT22;38441;52.894;6.040;2023-08-08T02:13:43;14.20;99.90
52531;DHT22;38441;52.894;6.040;2023-08-08T02:16:09;14.30;99.90
52531;DHT22;38441;52.894;6.040;2023-08-08T02:18:34;14.90;99.90
52531;DHT22;38441;52.894;6.040;2023-08-08T02:21:06;15.40;99.90
52531;DHT22;38441;52.894;6.040;2023-08-08T02:23:32;14.10;99.90
52531;DHT22;38441;52.894;6.040;2023-08-08T02:25:57;14.20;99.90
52531;DHT22;38441;52.894;6.040;2023-08-08T02:28:23;14.40;99.90
52531;DHT22;38441;52.894;6.040;2023-08-08T02:30:48;16.00;99.90
52531;DHT22;38441;52.894;6.040;2023-08-08T02:33:14;15.90;99.90
52531;DHT22;38441;52.894;6.040;2023-08-08T02:35:40;14.90;99.90
52531;DHT22;38441;52.894;6.040;2023-08-08T02:38:05;16.30;99.90
52531;DHT22;38441;52.894;6.040;2023-08-08T02:40:31;15.90;99.90
52531;DHT22;38441;52.894;6.040;2023-08-08T02:42:58;15.80;99.90
52531;DHT22;38441;52.894;6.040;2023-08-08T02:45:24;14.00;99.90
52531;DHT22;38441;52.894;6.040;2023-08-08T02:47:49;15.70;99.90
52531;DHT22;38441;52.894;6.040;2023-08-08T02:50:15;15.00;99.90
52531;DHT22;38441;52.894;6.040;2023-08-08T02:52:40;14.20;99.90
52531;DHT22;38441;52.894;6.040;2023-08-08T02:55:07;13.90;99.90
52531;DHT22;38441;52.894;6.040;2023-08-08T02:57:32;14.00;99.90
52531;DHT22;38441;52.894;6.040;2023-08-08T02:59:58;14.50;99.90
52531;DHT22;38441;52.894;6.040;2023-08-08T03:02:24;13.70;99.90
52531;DHT22;38441;52.894;6.040;2023-08-08T03:04:49;13.70;99.90
52531;DHT22;38441;52.894;6.040;2023-08-08T03:07:15;13.80;99.90
52531;DHT22;38441;52.894;6.040;2023-08-08T03:09:41;15.20;99.90
52531;DHT22;38441;52.894;6.040;2023-08-08T03:12:07;16.30;99.90
52531;DHT22;38441;52.894;6.040;2023-08-08T03:14:33;13.80;99.90
52531;DHT22;38441;52.894;6.040;2023-08-08T03:16:59;13.80;99.90
52531;DHT22;38441;52.894;6.040;2023-08-08T03:19:25;15.50;99.90
52531;DHT22;38441;52.894;6.040;2023-08-08T03:21:51;13.60;99.90
52531;DHT22;38441;52.894;6.040;2023-08-08T03:24:16;13.70;99.90
52531;DHT22;38441;52.894;6.040;2023-08-08T03:26:42;14.90;99.90
52531;DHT22;38441;52.894;6.040;2023-08-08T03:29:08;13.60;99.90
52531;DHT22;38441;52.894;6.040;2023-08-08T03:31:36;14.90;99.90
52531;DHT22;38441;52.894;6.040;2023-08-08T03:34:02;14.80;99.90
52531;DHT22;38441;52.894;6.040;2023-08-08T03:36:28;13.50;99.90
52531;DHT22;38441;52.894;6.040;2023-08-08T03:38:54;13.30;99.90
52531;DHT22;38441;52.894;6.040;2023-08-08T03:41:19;14.60;99.90
52531;DHT22;38441;52.894;6.040;2023-08-08T03:43:45;15.30;99.90
52531;DHT22;38441;52.894;6.040;2023-08-08T03:46:10;14.50;99.90
52531;DHT22;38441;52.894;6.040;2023-08-08T03:48:37;14.40;99.90
52531;DHT22;38441;52.894;6.040;2023-08-08T03:51:03;13.80;99.90
52531;DHT22;38441;52.894;6.040;2023-08-08T03:53:29;14.90;99.90
52531;DHT22;38441;52.894;6.040;2023-08-08T03:55:55;13.50;99.90
52531;DHT22;38441;52.894;6.040;2023-08-08T03:58:20;13.40;99.90
52531;DHT22;38441;52.894;6.040;2023-08-08T04:00:46;12.50;99.90
52531;DHT22;38441;52.894;6.040;2023-08-08T04:03:16;14.60;99.90
52531;DHT22;38441;52.894;6.040;2023-08-08T04:05:46;13.40;99.90
52531;DHT22;38441;52.894;6.040;2023-08-08T04:08:13;13.30;99.90
52531;DHT22;38441;52.894;6.040;2023-08-08T04:10:38;13.20;99.90
52531;DHT22;38441;52.894;6.040;2023-08-08T04:13:04;13.20;99.90
52531;DHT22;38441;52.894;6.040;2023-08-08T04:15:30;14.20;99.90
52531;DHT22;38441;52.894;6.040;2023-08-08T04:17:55;13.40;99.90
52531;DHT22;38441;52.894;6.040;2023-08-08T04:20:22;13.20;99.90
52531;DHT22;38441;52.894;6.040;2023-08-08T04:22:47;13.40;99.90
52531;DHT22;38441;52.894;6.040;2023-08-08T04:25:14;13.10;99.90
52531;DHT22;38441;52.894;6.040;2023-08-08T04:27:40;14.60;99.90
52531;DHT22;38441;52.894;6.040;2023-08-08T04:30:06;11.30;99.90
52531;DHT22;38441;52.894;6.040;2023-08-08T04:32:32;13.70;99.90
52531;DHT22;38441;52.894;6.040;2023-08-08T04:34:58;13.40;99.90
52531;DHT22;38441;52.894;6.040;2023-08-08T04:37:24;14.30;99.90
52531;DHT22;38441;52.894;6.040;2023-08-08T04:39:49;13.60;99.90
52531;DHT22;38441;52.894;6.040;2023-08-08T04:42:15;14.60;99.90
52531;DHT22;38441;52.894;6.040;2023-08-08T04:44:40;13.60;99.90
52531;DHT22;38441;52.894;6.040;2023-08-08T04:47:06;13.40;99.90
52531;DHT22;38441;52.894;6.040;2023-08-08T04:49:32;14.60;99.90
52531;DHT22;38441;52.894;6.040;2023-08-08T04:51:57;13.60;99.90
52531;DHT22;38441;52.894;6.040;2023-08-08T04:54:23;15.00;99.90
52531;DHT22;38441;52.894;6.040;2023-08-08T04:56:58;15.00;99.90
52531;DHT22;38441;52.894;6.040;2023-08-08T04:59:44;14.30;99.90
52531;DHT22;38441;52.894;6.040;2023-08-08T05:02:12;14.10;99.90
52531;DHT22;38441;52.894;6.040;2023-08-08T05:05:03;13.90;99.90
52531;DHT22;38441;52.894;6.040;2023-08-08T05:07:44;13.70;99.90
52531;DHT22;38441;52.894;6.040;2023-08-08T05:10:32;13.50;99.90
52531;DHT22;38441;52.894;6.040;2023-08-08T05:13:01;15.90;99.90
52531;DHT22;38441;52.894;6.040;2023-08-08T05:15:46;13.10;99.90
52531;DHT22;38441;52.894;6.040;2023-08-08T05:18:38;13.50;99.90
52531;DHT22;38441;52.894;6.040;2023-08-08T05:21:11;14.60;99.90
52531;DHT22;38441;52.894;6.040;2023-08-08T05:23:39;12.50;99.90
52531;DHT22;38441;52.894;6.040;2023-08-08T05:26:05;12.50;99.90
52531;DHT22;38441;52.894;6.040;2023-08-08T05:28:30;14.30;99.90
52531;DHT22;38441;52.894;6.040;2023-08-08T05:30:59;14.00;99.90
52531;DHT22;38441;52.894;6.040;2023-08-08T05:33:24;13.40;99.90
52531;DHT22;38441;52.894;6.040;2023-08-08T05:35:50;13.40;99.90
52531;DHT22;38441;52.894;6.040;2023-08-08T05:38:16;16.10;99.90
52531;DHT22;38441;52.894;6.040;2023-08-08T05:40:41;13.30;99.90
52531;DHT22;38441;52.894;6.040;2023-08-08T05:43:07;15.20;99.90
52531;DHT22;38441;52.894;6.040;2023-08-08T05:45:33;13.30;99.90
52531;DHT22;38441;52.894;6.040;2023-08-08T05:47:59;13.70;99.90
52531;DHT22;38441;52.894;6.040;2023-08-08T05:50:27;14.60;99.90
52531;DHT22;38441;52.894;6.040;2023-08-08T05:52:53;13.80;99.90
52531;DHT22;38441;52.894;6.040;2023-08-08T05:55:19;14.60;99.90
52531;DHT22;38441;52.894;6.040;2023-08-08T05:57:44;15.10;99.90
52531;DHT22;38441;52.894;6.040;2023-08-08T06:00:11;13.70;99.90
52531;DHT22;38441;52.894;6.040;2023-08-08T06:02:37;13.80;99.90
52531;DHT22;38441;52.894;6.040;2023-08-08T06:05:04;14.20;99.90
52531;DHT22;38441;52.894;6.040;2023-08-08T06:07:32;13.90;99.90
52531;DHT22;38441;52.894;6.040;2023-08-08T06:09:57;13.70;99.90
52531;DHT22;38441;52.894;6.040;2023-08-08T06:12:23;13.80;99.90
52531;DHT22;38441;52.894;6.040;2023-08-08T06:14:49;14.00;99.90
52531;DHT22;38441;52.894;6.040;2023-08-08T06:17:14;14.00;99.90
52531;DHT22;38441;52.894;6.040;2023-08-08T06:19:40;13.40;99.90
52531;DHT22;38441;52.894;6.040;2023-08-08T06:22:06;14.10;99.90
52531;DHT22;38441;52.894;6.040;2023-08-08T06:24:31;13.90;99.90
52531;DHT22;38441;52.894;6.040;2023-08-08T06:26:57;16.60;99.90
52531;DHT22;38441;52.894;6.040;2023-08-08T06:29:23;14.30;99.90
52531;DHT22;38441;52.894;6.040;2023-08-08T06:31:48;14.30;99.90
52531;DHT22;38441;52.894;6.040;2023-08-08T06:34:14;14.90;99.90
52531;DHT22;38441;52.894;6.040;2023-08-08T06:36:40;14.30;99.90
52531;DHT22;38441;52.894;6.040;2023-08-08T06:39:06;15.10;99.90
52531;DHT22;38441;52.894;6.040;2023-08-08T06:41:34;17.10;99.90
52531;DHT22;38441;52.894;6.040;2023-08-08T06:44:00;16.10;99.90
52531;DHT22;38441;52.894;6.040;2023-08-08T06:46:26;16.10;99.90
52531;DHT22;38441;52.894;6.040;2023-08-08T06:48:51;15.70;99.90
52531;DHT22;38441;52.894;6.040;2023-08-08T06:51:21;15.40;99.90
52531;DHT22;38441;52.894;6.040;2023-08-08T06:53:47;14.70;99.90
52531;DHT22;38441;52.894;6.040;2023-08-08T06:56:12;15.70;99.90
52531;DHT22;38441;52.894;6.040;2023-08-08T06:58:38;16.70;99.90
52531;DHT22;38441;52.894;6.040;2023-08-08T07:01:04;17.00;99.90
52531;DHT22;38441;52.894;6.040;2023-08-08T07:03:29;16.70;99.90
52531;DHT22;38441;52.894;6.040;2023-08-08T07:05:55;14.90;99.90
52531;DHT22;38441;52.894;6.040;2023-08-08T07:08:21;16.40;99.90
52531;DHT22;38441;52.894;6.040;2023-08-08T07:10:47;14.80;99.90
52531;DHT22;38441;52.894;6.040;2023-08-08T07:13:12;16.20;99.90
52531;DHT22;38441;52.894;6.040;2023-08-08T07:15:38;14.50;99.90
52531;DHT22;38441;52.894;6.040;2023-08-08T07:18:04;16.50;99.90
52531;DHT22;38441;52.894;6.040;2023-08-08T07:20:30;15.70;99.90
52531;DHT22;38441;52.894;6.040;2023-08-08T07:22:55;16.60;99.90
52531;DHT22;38441;52.894;6.040;2023-08-08T07:25:21;17.50;99.90
52531;DHT22;38441;52.894;6.040;2023-08-08T07:27:47;16.80;99.90
52531;DHT22;38441;52.894;6.040;2023-08-08T07:30:12;17.20;99.90
52531;DHT22;38441;52.894;6.040;2023-08-08T07:32:38;17.20;99.90
52531;DHT22;38441;52.894;6.040;2023-08-08T07:35:04;16.80;99.90
52531;DHT22;38441;52.894;6.040;2023-08-08T07:37:32;16.10;99.90
52531;DHT22;38441;52.894;6.040;2023-08-08T07:39:58;17.00;99.90
52531;DHT22;38441;52.894;6.040;2023-08-08T07:42:26;17.20;99.90
52531;DHT22;38441;52.894;6.040;2023-08-08T07:44:52;16.70;99.90
52531;DHT22;38441;52.894;6.040;2023-08-08T07:47:17;17.20;99.90
52531;DHT22;38441;52.894;6.040;2023-08-08T07:49:43;16.90;99.90
52531;DHT22;38441;52.894;6.040;2023-08-08T07:52:09;16.00;99.90
52531;DHT22;38441;52.894;6.040;2023-08-08T07:54:35;17.60;99.90
52531;DHT22;38441;52.894;6.040;2023-08-08T07:57:00;16.10;99.90
52531;DHT22;38441;52.894;6.040;2023-08-08T07:59:31;16.10;99.90
52531;DHT22;38441;52.894;6.040;2023-08-08T08:02:25;15.70;99.90
52531;DHT22;38441;52.894;6.040;2023-08-08T08:05:09;17.60;99.90
52531;DHT22;38441;52.894;6.040;2023-08-08T08:07:40;18.40;99.90
52531;DHT22;38441;52.894;6.040;2023-08-08T08:10:08;16.30;99.90
52531;DHT22;38441;52.894;6.040;2023-08-08T08:12:35;16.40;99.90
52531;DHT22;38441;52.894;6.040;2023-08-08T08:15:01;18.90;99.90
52531;DHT22;38441;52.894;6.040;2023-08-08T08:17:30;17.80;99.90
52531;DHT22;38441;52.894;6.040;2023-08-08T08:19:58;16.40;99.90
52531;DHT22;38441;52.894;6.040;2023-08-08T08:22:31;18.20;99.90
52531;DHT22;38441;52.894;6.040;2023-08-08T08:25:06;16.30;99.90
52531;DHT22;38441;52.894;6.040;2023-08-08T08:27:54;16.40;99.90
52531;DHT22;38441;52.894;6.040;2023-08-08T08:30:24;16.70;99.90
52531;DHT22;38441;52.894;6.040;2023-08-08T08:32:55;16.60;99.90
52531;DHT22;38441;52.894;6.040;2023-08-08T08:35:33;18.70;99.90
52531;DHT22;38441;52.894;6.040;2023-08-08T08:37:59;17.90;99.90
52531;DHT22;38441;52.894;6.040;2023-08-08T08:40:25;19.20;99.90
52531;DHT22;38441;52.894;6.040;2023-08-08T08:42:58;19.10;99.90
52531;DHT22;38441;52.894;6.040;2023-08-08T08:45:32;18.50;99.90
52531;DHT22;38441;52.894;6.040;2023-08-08T08:48:16;18.70;99.90
52531;DHT22;38441;52.894;6.040;2023-08-08T08:50:49;18.70;99.90
52531;DHT22;38441;52.894;6.040;2023-08-08T08:53:43;18.00;99.90
52531;DHT22;38441;52.894;6.040;2023-08-08T08:56:14;17.30;99.90
52531;DHT22;38441;52.894;6.040;2023-08-08T08:58:42;18.80;99.90
52531;DHT22;38441;52.894;6.040;2023-08-08T09:01:11;18.20;99.90
52531;DHT22;38441;52.894;6.040;2023-08-08T09:03:37;17.40;99.90
52531;DHT22;38441;52.894;6.040;2023-08-08T09:06:04;19.00;99.90
52531;DHT22;38441;52.894;6.040;2023-08-08T09:08:30;19.60;99.90
52531;DHT22;38441;52.894;6.040;2023-08-08T09:10:56;17.50;99.90
52531;DHT22;38441;52.894;6.040;2023-08-08T09:13:22;17.50;99.90
52531;DHT22;38441;52.894;6.040;2023-08-08T09:15:51;18.80;99.90
52531;DHT22;38441;52.894;6.040;2023-08-08T09:18:16;18.50;99.90
52531;DHT22;38441;52.894;6.040;2023-08-08T09:20:47;18.30;99.90
52531;DHT22;38441;52.894;6.040;2023-08-08T09:23:13;19.40;99.90
52531;DHT22;38441;52.894;6.040;2023-08-08T09:25:39;17.60;99.90
52531;DHT22;38441;52.894;6.040;2023-08-08T09:28:05;19.20;99.90
52531;DHT22;38441;52.894;6.040;2023-08-08T09:30:31;18.70;99.90
52531;DHT22;38441;52.894;6.040;2023-08-08T09:33:00;19.10;99.90
52531;DHT22;38441;52.894;6.040;2023-08-08T09:35:28;18.20;99.90
52531;DHT22;38441;52.894;6.040;2023-08-08T09:37:54;19.10;99.90
52531;DHT22;38441;52.894;6.040;2023-08-08T09:40:22;17.30;99.90
52531;DHT22;38441;52.894;6.040;2023-08-08T09:42:47;18.50;99.90
52531;DHT22;38441;52.894;6.040;2023-08-08T09:45:14;20.10;99.90
52531;DHT22;38441;52.894;6.040;2023-08-08T09:47:39;19.10;99.90
52531;DHT22;38441;52.894;6.040;2023-08-08T09:50:06;19.40;99.90
52531;DHT22;38441;52.894;6.040;2023-08-08T09:52:34;18.00;99.90
52531;DHT22;38441;52.894;6.040;2023-08-08T09:55:00;20.30;99.90
52531;DHT22;38441;52.894;6.040;2023-08-08T09:57:26;20.60;99.90
52531;DHT22;38441;52.894;6.040;2023-08-08T09:59:52;19.90;99.90
52531;DHT22;38441;52.894;6.040;2023-08-08T10:02:18;19.30;99.90
52531;DHT22;38441;52.894;6.040;2023-08-08T10:04:47;20.70;99.90
52531;DHT22;38441;52.894;6.040;2023-08-08T10:07:14;19.80;99.90
52531;DHT22;38441;52.894;6.040;2023-08-08T10:09:41;19.20;99.90
52531;DHT22;38441;52.894;6.040;2023-08-08T10:12:07;20.90;99.90
52531;DHT22;38441;52.894;6.040;2023-08-08T10:14:36;18.60;99.90
52531;DHT22;38441;52.894;6.040;2023-08-08T10:17:04;19.70;99.90
52531;DHT22;38441;52.894;6.040;2023-08-08T10:19:30;18.10;99.90
52531;DHT22;38441;52.894;6.040;2023-08-08T10:22:05;20.20;99.90
52531;DHT22;38441;52.894;6.040;2023-08-08T10:24:35;19.50;99.90
52531;DHT22;38441;52.894;6.040;2023-08-08T10:27:02;18.60;99.90
52531;DHT22;38441;52.894;6.040;2023-08-08T10:29:31;18.80;99.90
52531;DHT22;38441;52.894;6.040;2023-08-08T10:32:05;20.60;99.90
52531;DHT22;38441;52.894;6.040;2023-08-08T10:37:06;18.40;99.90
52531;DHT22;38441;52.894;6.040;2023-08-08T10:39:34;19.90;99.90
52531;DHT22;38441;52.894;6.040;2023-08-08T10:42:03;20.20;99.90
52531;DHT22;38441;52.894;6.040;2023-08-08T10:44:29;19.80;99.90
52531;DHT22;38441;52.894;6.040;2023-08-08T10:46:56;20.30;99.90
52531;DHT22;38441;52.894;6.040;2023-08-08T10:49:22;20.80;99.90
52531;DHT22;38441;52.894;6.040;2023-08-08T10:51:48;21.20;99.90
52531;DHT22;38441;52.894;6.040;2023-08-08T10:54:25;20.30;99.90
52531;DHT22;38441;52.894;6.040;2023-08-08T10:59:38;19.40;99.90
52531;DHT22;38441;52.894;6.040;2023-08-08T11:02:04;21.80;99.90
52531;DHT22;38441;52.894;6.040;2023-08-08T11:04:30;20.90;99.90
52531;DHT22;38441;52.894;6.040;2023-08-08T11:06:58;20.90;99.90
52531;DHT22;38441;52.894;6.040;2023-08-08T11:09:24;20.60;99.90
52531;DHT22;38441;52.894;6.040;2023-08-08T11:11:51;21.10;99.90
52531;DHT22;38441;52.894;6.040;2023-08-08T11:14:19;20.90;99.90
52531;DHT22;38441;52.894;6.040;2023-08-08T11:16:47;20.10;99.90
52531;DHT22;38441;52.894;6.040;2023-08-08T11:19:14;19.60;99.90
52531;DHT22;38441;52.894;6.040;2023-08-08T11:21:43;21.80;99.90
52531;DHT22;38441;52.894;6.040;2023-08-08T11:24:09;21.80;99.90
52531;DHT22;38441;52.894;6.040;2023-08-08T11:26:36;20.90;99.90
52531;DHT22;38441;52.894;6.040;2023-08-08T11:29:03;21.00;99.90
52531;DHT22;38441;52.894;6.040;2023-08-08T11:31:29;21.00;99.90
52531;DHT22;38441;52.894;6.040;2023-08-08T11:33:56;20.30;99.90
52531;DHT22;38441;52.894;6.040;2023-08-08T11:36:26;21.90;99.90
52531;DHT22;38441;52.894;6.040;2023-08-08T11:38:54;21.40;99.90
52531;DHT22;38441;52.894;6.040;2023-08-08T11:41:22;21.30;99.90
52531;DHT22;38441;52.894;6.040;2023-08-08T11:43:50;22.00;99.90
52531;DHT22;38441;52.894;6.040;2023-08-08T11:46:16;20.90;99.90
52531;DHT22;38441;52.894;6.040;2023-08-08T11:48:45;21.10;99.90
52531;DHT22;38441;52.894;6.040;2023-08-08T11:51:14;19.90;99.90
52531;DHT22;38441;52.894;6.040;2023-08-08T11:53:48;21.60;99.90
52531;DHT22;38441;52.894;6.040;2023-08-08T11:56:15;21.90;99.90
52531;DHT22;38441;52.894;6.040;2023-08-08T11:58:41;21.20;99.90
52531;DHT22;38441;52.894;6.040;2023-08-08T12:01:07;21.70;99.90
52531;DHT22;38441;52.894;6.040;2023-08-08T12:03:35;21.50;99.90
52531;DHT22;38441;52.894;6.040;2023-08-08T12:06:14;21.30;99.90
52531;DHT22;38441;52.894;6.040;2023-08-08T12:08:42;19.70;99.90
52531;DHT22;38441;52.894;6.040;2023-08-08T12:11:09;20.70;99.90
52531;DHT22;38441;52.894;6.040;2023-08-08T12:13:43;20.40;99.90
52531;DHT22;38441;52.894;6.040;2023-08-08T12:16:11;20.00;99.90
52531;DHT22;38441;52.894;6.040;2023-08-08T12:18:37;21.90;99.90
52531;DHT22;38441;52.894;6.040;2023-08-08T12:21:06;21.90;99.90
52531;DHT22;38441;52.894;6.040;2023-08-08T12:23:33;21.80;99.90
52531;DHT22;38441;52.894;6.040;2023-08-08T12:26:00;20.40;99.90
52531;DHT22;38441;52.894;6.040;2023-08-08T12:28:29;22.50;99.90
52531;DHT22;38441;52.894;6.040;2023-08-08T12:31:04;21.50;99.90
52531;DHT22;38441;52.894;6.040;2023-08-08T12:33:29;21.60;99.90
52531;DHT22;38441;52.894;6.040;2023-08-08T12:35:55;20.00;99.90
52531;DHT22;38441;52.894;6.040;2023-08-08T12:38:21;22.00;99.90
52531;DHT22;38441;52.894;6.040;2023-08-08T12:40:48;21.90;99.90
52531;DHT22;38441;52.894;6.040;2023-08-08T12:43:13;21.20;99.90
52531;DHT22;38441;52.894;6.040;2023-08-08T12:45:44;21.60;99.90
52531;DHT22;38441;52.894;6.040;2023-08-08T12:48:10;21.90;99.90
52531;DHT22;38441;52.894;6.040;2023-08-08T12:50:36;21.80;99.90
52531;DHT22;38441;52.894;6.040;2023-08-08T12:53:03;21.70;99.90
52531;DHT22;38441;52.894;6.040;2023-08-08T12:55:30;20.30;99.90
52531;DHT22;38441;52.894;6.040;2023-08-08T12:57:56;21.40;99.90
52531;DHT22;38441;52.894;6.040;2023-08-08T13:00:21;21.60;99.90
52531;DHT22;38441;52.894;6.040;2023-08-08T13:02:47;20.00;99.90
52531;DHT22;38441;52.894;6.040;2023-08-08T13:05:13;21.10;99.90
52531;DHT22;38441;52.894;6.040;2023-08-08T13:07:38;22.30;99.90
52531;DHT22;38441;52.894;6.040;2023-08-08T13:10:04;21.70;99.90
52531;DHT22;38441;52.894;6.040;2023-08-08T13:12:33;22.70;99.90
52531;DHT22;38441;52.894;6.040;2023-08-08T13:14:59;20.60;99.90
52531;DHT22;38441;52.894;6.040;2023-08-08T13:17:24;22.70;99.90
52531;DHT22;38441;52.894;6.040;2023-08-08T13:19:50;21.90;99.90
52531;DHT22;38441;52.894;6.040;2023-08-08T13:22:16;22.30;99.90
52531;DHT22;38441;52.894;6.040;2023-08-08T13:24:42;21.30;99.90
52531;DHT22;38441;52.894;6.040;2023-08-08T13:27:07;23.00;99.90
52531;DHT22;38441;52.894;6.040;2023-08-08T13:29:33;21.80;99.90
52531;DHT22;38441;52.894;6.040;2023-08-08T13:31:58;21.90;99.90
52531;DHT22;38441;52.894;6.040;2023-08-08T13:34:24;22.40;99.90
52531;DHT22;38441;52.894;6.040;2023-08-08T13:36:50;20.00;99.90
52531;DHT22;38441;52.894;6.040;2023-08-08T13:39:15;21.50;99.90
52531;DHT22;38441;52.894;6.040;2023-08-08T13:41:41;22.90;99.90
52531;DHT22;38441;52.894;6.040;2023-08-08T13:44:07;22.20;99.90
52531;DHT22;38441;52.894;6.040;2023-08-08T13:46:33;21.90;99.90
52531;DHT22;38441;52.894;6.040;2023-08-08T13:48:58;22.00;99.90
52531;DHT22;38441;52.894;6.040;2023-08-08T13:51:24;22.40;99.90
52531;DHT22;38441;52.894;6.040;2023-08-08T13:53:50;21.30;99.90
52531;DHT22;38441;52.894;6.040;2023-08-08T13:56:16;20.90;99.90
52531;DHT22;38441;52.894;6.040;2023-08-08T13:58:41;21.10;99.90
52531;DHT22;38441;52.894;6.040;2023-08-08T14:01:07;20.90;99.90
52531;DHT22;38441;52.894;6.040;2023-08-08T14:03:33;20.60;99.90
52531;DHT22;38441;52.894;6.040;2023-08-08T14:05:58;20.60;99.90
52531;DHT22;38441;52.894;6.040;2023-08-08T14:08:24;19.50;99.90
52531;DHT22;38441;52.894;6.040;2023-08-08T14:10:50;19.40;99.90
52531;DHT22;38441;52.894;6.040;2023-08-08T14:13:16;21.30;99.90
52531;DHT22;38441;52.894;6.040;2023-08-08T14:15:41;20.10;99.90
52531;DHT22;38441;52.894;6.040;2023-08-08T14:18:07;20.90;99.90
52531;DHT22;38441;52.894;6.040;2023-08-08T14:20:33;20.20;99.90
52531;DHT22;38441;52.894;6.040;2023-08-08T14:22:59;19.40;99.90
52531;DHT22;38441;52.894;6.040;2023-08-08T14:25:24;19.30;99.90
52531;DHT22;38441;52.894;6.040;2023-08-08T14:27:50;20.60;99.90
52531;DHT22;38441;52.894;6.040;2023-08-08T14:30:16;20.80;99.90
52531;DHT22;38441;52.894;6.040;2023-08-08T14:32:41;20.20;99.90
52531;DHT22;38441;52.894;6.040;2023-08-08T14:35:07;19.70;99.90
52531;DHT22;38441;52.894;6.040;2023-08-08T14:37:35;18.40;99.90
52531;DHT22;38441;52.894;6.040;2023-08-08T14:40:01;20.30;99.90
52531;DHT22;38441;52.894;6.040;2023-08-08T14:42:28;19.10;99.90
52531;DHT22;38441;52.894;6.040;2023-08-08T14:44:53;20.10;99.90
52531;DHT22;38441;52.894;6.040;2023-08-08T14:47:19;20.80;99.90
52531;DHT22;38441;52.894;6.040;2023-08-08T14:49:45;21.10;99.90
52531;DHT22;38441;52.894;6.040;2023-08-08T14:52:10;20.50;99.90
52531;DHT22;38441;52.894;6.040;2023-08-08T14:54:36;21.20;99.90
52531;DHT22;38441;52.894;6.040;2023-08-08T14:57:02;20.20;99.90
52531;DHT22;38441;52.894;6.040;2023-08-08T14:59:28;19.20;99.90
52531;DHT22;38441;52.894;6.040;2023-08-08T15:01:54;21.60;99.90
52531;DHT22;38441;52.894;6.040;2023-08-08T15:04:19;20.40;99.90
52531;DHT22;38441;52.894;6.040;2023-08-08T15:06:45;20.60;99.90
52531;DHT22;38441;52.894;6.040;2023-08-08T15:09:11;20.90;99.90
52531;DHT22;38441;52.894;6.040;2023-08-08T15:11:37;20.60;99.90
52531;DHT22;38441;52.894;6.040;2023-08-08T15:14:02;21.40;99.90
52531;DHT22;38441;52.894;6.040;2023-08-08T15:16:28;20.70;99.90
52531;DHT22;38441;52.894;6.040;2023-08-08T15:18:54;20.40;99.90
52531;DHT22;38441;52.894;6.040;2023-08-08T15:21:21;20.50;99.90
52531;DHT22;38441;52.894;6.040;2023-08-08T15:23:47;21.20;99.90
52531;DHT22;38441;52.894;6.040;2023-08-08T15:26:14;20.50;99.90
52531;DHT22;38441;52.894;6.040;2023-08-08T15:28:41;19.70;99.90
52531;DHT22;38441;52.894;6.040;2023-08-08T15:31:07;19.20;99.90
52531;DHT22;38441;52.894;6.040;2023-08-08T15:33:32;20.80;99.90
52531;DHT22;38441;52.894;6.040;2023-08-08T15:35:58;20.30;99.90
52531;DHT22;38441;52.894;6.040;2023-08-08T15:38:24;21.60;99.90